Afrika Fablları.pdf

Afrika Fablları

Timothy Knapman


Yaşadıklarından çok önemli dersler alan

Airports near Bloemfontein: Maseru airport (128km); Kimberley (South Africa) airport (152km); Umtata airport ... METAR, TAF, VAC, NOTAM Bloemfontein Bloemfontein Air airport (South Africa) / OACI FABL/ IATA BFN. Aéroport Bloemfontein Bloemfontein Air. Bloemfontein ...

2.55 MB Tamaño del archivo
9786053484912 ISBN
Afrika Fablları.pdf

Tecnología

PC e Mac

Lea el libro electrónico inmediatamente después de descargarlo mediante "Leer ahora" en su navegador o con el software de lectura gratuito Adobe Digital Editions.

iOS & Android

Para tabletas y teléfonos inteligentes: nuestra aplicación gratuita de lectura tolino

eBook Reader

Descargue el libro electrónico directamente al lector en la tienda www.matchado.com.au o transfiéralo con el software gratuito Sony READER FOR PC / Mac o Adobe Digital Editions.

Reader

Después de la sincronización automática, abra el libro electrónico en el lector o transfiéralo manualmente a su dispositivo tolino utilizando el software gratuito Adobe Digital Editions.

Notas actuales

avatar
Sofi Voighua

Bloemfontain, SOUTH AFRICA ... TAF FABL 091000Z 0912/1012 33010KT 9999 SCT035 TX31/0913Z TN20/1004Z BECMG 1000/1002 BKN015 PROB30 ... Airports near Bloemfontein: Maseru airport (128km); Kimberley (South Africa) airport (152km); Umtata airport ...

avatar
Mattio Mazios

Leoparlar, aslanlar, sırtlanlar… Zambia’nin vahşi topraklarında pek çok hayvan detaylı olarak inceleniyor. Yaşlı ve bilge bir leopar genç bir rakibi tarafınd

avatar
Noe Schulzzo

Bloemfontain, SOUTH AFRICA ... TAF FABL 091000Z 0912/1012 33010KT 9999 SCT035 TX31/0913Z TN20/1004Z BECMG 1000/1002 BKN015 PROB30 ... Airports near Bloemfontein: Maseru airport (128km); Kimberley (South Africa) airport (152km); Umtata airport ...

avatar
Jason Statham

Kahvaltı Afrika GittiGidiyor'da! Kahvaltı Afrika modelleri, Kahvaltı Afrika özellikleri ve markaları en uygun fiyatları ile GittiGidiyor'da.6/100 Filinta / İyi Dünya Fablları Sen hiç tekerleme söyleyen fil gördün mü? Afrika'nın susuz topraklarını biliyor musun? Peki Türkiye'den gidip oralarda su kuyusu aç

avatar
Jessica Kolhmann

Afrika Fablları: 2 ve 3. sınıflar için: Timothy Knapman: Amazon.com.tr Çerez Tercihlerinizi Seçin Alışveriş deneyiminizi geliştirmek, hizmetlerimizi sunmak, müşterilerin hizmetlerimizi nasıl kullandığını anlayarak iyileştirmeler yapabilmek ve tanıtımları gösterebilmek için çerezler ve benzeri araçları kullanmaktayız.